createdAt,value
2022-10-24T00:01:24.041Z,17.02
2022-10-24T00:11:29.263Z,17.13
2022-10-24T00:21:31.917Z,17.19
2022-10-24T00:31:35.992Z,17.24
2022-10-24T00:41:42.711Z,17.17
2022-10-24T00:51:48.953Z,17.16
2022-10-24T01:01:51.708Z,17.17
2022-10-24T01:12:05.652Z,16.99
2022-10-24T01:22:14.234Z,16.82
2022-10-24T01:32:28.683Z,16.66
2022-10-24T01:42:33.856Z,16.56
2022-10-24T01:52:42.657Z,16.66
2022-10-24T02:02:50.891Z,16.76
2022-10-24T02:13:00.472Z,16.75
2022-10-24T02:23:10.454Z,16.75
2022-10-24T02:33:16.979Z,16.70
2022-10-24T02:43:21.949Z,16.78
2022-10-24T02:53:27.033Z,16.86
2022-10-24T03:03:29.690Z,16.73
2022-10-24T03:13:33.774Z,16.71
2022-10-24T03:23:36.525Z,16.40
2022-10-24T03:33:40.604Z,16.27
2022-10-24T03:43:43.419Z,16.30
2022-10-24T03:53:47.495Z,16.21
2022-10-24T04:03:50.210Z,16.04
2022-10-24T04:13:54.372Z,16.05
2022-10-24T04:23:57.026Z,16.41
2022-10-24T04:34:01.023Z,16.50
2022-10-24T04:44:03.669Z,16.77
2022-10-24T04:54:08.604Z,16.77
2022-10-24T05:04:12.536Z,16.78
2022-10-24T05:14:16.463Z,16.64
2022-10-24T05:24:19.163Z,16.63
2022-10-24T05:34:23.287Z,16.56
2022-10-24T05:44:26.116Z,16.50
2022-10-24T05:54:37.724Z,16.40
2022-10-24T06:04:51.864Z,16.14
2022-10-24T06:14:59.030Z,16.11
2022-10-24T06:25:01.759Z,16.03
2022-10-24T06:35:06.576Z,16.08
2022-10-24T06:45:10.069Z,16.18
2022-10-24T06:55:14.053Z,16.34
2022-10-24T07:05:17.099Z,16.51
2022-10-24T07:15:21.506Z,16.72
2022-10-24T07:25:24.164Z,16.87
2022-10-24T07:35:28.134Z,16.89
2022-10-24T07:45:32.215Z,17.24
2022-10-24T07:55:39.140Z,17.32
2022-10-24T08:05:41.975Z,17.51
2022-10-24T08:15:46.149Z,17.33
2022-10-24T08:25:48.738Z,17.60
2022-10-24T08:35:53.811Z,17.66
2022-10-24T08:46:03.720Z,17.99
2022-10-24T08:56:11.448Z,18.33
2022-10-24T09:06:18.856Z,18.62
2022-10-24T09:16:25.043Z,18.96
2022-10-24T09:26:30.858Z,18.92
2022-10-24T09:36:35.078Z,19.28
2022-10-24T09:46:44.941Z,18.97
2022-10-24T09:56:54.991Z,19.44
2022-10-24T10:06:57.759Z,19.17
2022-10-24T10:17:05.017Z,19.07
2022-10-24T10:27:27.392Z,19.28
2022-10-24T10:37:33.314Z,19.22
2022-10-24T10:47:47.099Z,19.67
2022-10-24T10:57:59.092Z,19.87
2022-10-24T11:08:08.537Z,19.00
2022-10-24T11:18:18.898Z,19.94
2022-10-24T11:28:27.001Z,29.35
2022-10-24T11:38:33.564Z,32.33
2022-10-24T11:48:41.548Z,33.15
2022-10-24T11:58:51.475Z,32.61
2022-10-24T12:09:09.594Z,29.88
2022-10-24T12:19:17.245Z,24.74
2022-10-24T12:29:24.971Z,21.97
2022-10-24T12:39:34.123Z,21.21
2022-10-24T12:49:36.776Z,19.99
2022-10-24T12:59:49.022Z,19.89
2022-10-24T13:10:02.762Z,20.19
2022-10-24T13:20:17.586Z,19.80
2022-10-24T13:30:26.951Z,19.41
2022-10-24T13:40:33.174Z,18.97
2022-10-24T13:50:39.768Z,18.86
2022-10-24T14:00:46.907Z,18.64
2022-10-24T14:10:50.921Z,18.52
2022-10-24T14:20:57.128Z,18.49
2022-10-24T14:31:02.252Z,18.56
2022-10-24T14:41:10.121Z,18.05
2022-10-24T14:51:18.898Z,17.67
2022-10-24T15:01:24.661Z,17.60
2022-10-24T15:11:30.640Z,17.06
2022-10-24T15:21:39.398Z,17.32
2022-10-24T15:31:43.875Z,17.26
2022-10-24T15:41:48.283Z,16.86
2022-10-24T15:51:51.992Z,16.77
2022-10-24T16:02:00.170Z,16.64
2022-10-24T16:12:02.935Z,16.43
2022-10-24T16:22:08.513Z,16.25
2022-10-24T16:32:12.052Z,16.13
2022-10-24T16:42:16.802Z,16.05
2022-10-24T16:52:19.464Z,16.01
2022-10-24T17:02:23.408Z,15.83
2022-10-24T17:12:27.412Z,15.72
2022-10-24T17:22:43.148Z,15.55
2022-10-24T17:32:49.851Z,15.46
2022-10-24T17:42:54.624Z,15.38
2022-10-24T17:52:57.204Z,15.27
2022-10-24T18:03:01.166Z,15.36
2022-10-24T18:13:03.861Z,15.27
2022-10-24T18:23:07.886Z,15.22
2022-10-24T18:33:10.555Z,15.14
2022-10-24T18:43:14.803Z,15.06
2022-10-24T18:53:23.877Z,15.02
2022-10-24T19:03:33.603Z,14.94
2022-10-24T19:13:36.354Z,14.77
2022-10-24T19:23:40.336Z,14.65
2022-10-24T19:33:49.836Z,14.56
2022-10-24T19:43:53.856Z,14.53
2022-10-24T19:53:56.999Z,14.52
2022-10-24T20:04:01.315Z,14.60
2022-10-24T20:14:03.939Z,14.56
2022-10-24T20:24:09.543Z,14.55
2022-10-24T20:34:12.350Z,14.52
2022-10-24T20:44:16.755Z,14.43
2022-10-24T20:54:19.703Z,14.49
2022-10-24T21:04:23.711Z,14.43
2022-10-24T21:14:26.368Z,14.39
2022-10-24T21:24:30.373Z,14.28
2022-10-24T21:34:34.603Z,14.15
2022-10-24T21:44:39.246Z,14.13
2022-10-24T21:54:41.903Z,13.98
2022-10-24T22:04:45.897Z,13.97
2022-10-24T22:14:48.528Z,13.94
2022-10-24T22:24:52.599Z,13.76
2022-10-24T22:34:55.804Z,13.58
2022-10-24T22:45:00.320Z,13.49
2022-10-24T22:55:04.038Z,13.47
2022-10-24T23:05:14.816Z,13.50
2022-10-24T23:15:20.171Z,13.45
2022-10-24T23:25:25.142Z,13.31
2022-10-24T23:35:28.416Z,13.27
2022-10-24T23:45:36.820Z,13.25
2022-10-24T23:55:39.916Z,13.26
